Time;durP1;ratioP1;P1;durP2;ratioP2;P2;SDS_P1;SDS_P2;PMS_P1;PMS_P2;Temp;Humidity;BMP_temperature;BMP_pressure;BME280_temperature;BME280_humidity;BME280_pressure;Samples;Min_cycle;Max_cycle;Signal;HPM_P1;HPM_P2
2021/08/24 00:01:42;;;;;;;1.40;0.70;;;;;;;12.57;100.00;101604.84;5010290;28;20172;-73
2021/08/24 00:04:08;;;;;;;0.70;0.60;;;;;;;12.47;100.00;101609.38;5010153;28;20165;-73
2021/08/24 00:06:33;;;;;;;0.57;0.57;;;;;;;12.42;100.00;101609.44;5010267;28;20206;-73
2021/08/24 00:08:59;;;;;;;0.70;0.70;;;;;;;12.30;100.00;101603.59;5010024;28;20635;-74
2021/08/24 00:11:24;;;;;;;1.70;0.63;;;;;;;12.25;100.00;101603.63;5010082;28;20173;-73
2021/08/24 00:13:51;;;;;;;0.77;0.60;;;;;;;12.15;100.00;101612.81;5010075;28;20663;-74
2021/08/24 00:16:17;;;;;;;0.63;0.63;;;;;;;12.13;100.00;101615.00;5010203;28;20613;-73
2021/08/24 00:18:44;;;;;;;0.60;0.57;;;;;;;12.15;100.00;101622.94;5009877;28;20193;-73
2021/08/24 00:21:10;;;;;;;0.53;0.53;;;;;;;12.19;100.00;101624.00;5010467;28;20185;-73
2021/08/24 00:23:36;;;;;;;1.17;0.57;;;;;;;12.24;100.00;101628.59;5009884;28;20807;-73
2021/08/24 00:26:02;;;;;;;0.50;0.50;;;;;;;12.26;100.00;101631.84;5010082;28;20208;-74
2021/08/24 00:28:28;;;;;;;0.60;0.60;;;;;;;12.28;100.00;101626.91;5009997;28;20179;-73
2021/08/24 00:30:54;;;;;;;0.60;0.60;;;;;;;12.30;100.00;101625.53;5012408;28;20219;-73
2021/08/24 00:33:20;;;;;;;0.50;0.50;;;;;;;12.32;100.00;101631.50;5013655;28;20173;-73
2021/08/24 00:35:46;;;;;;;1.53;0.77;;;;;;;12.32;100.00;101627.97;5013387;28;20337;-74
2021/08/24 00:38:15;;;;;;;1.20;0.80;;;;;;;12.30;100.00;101622.78;5013639;28;20227;-73
2021/08/24 00:40:42;;;;;;;1.03;0.80;;;;;;;12.31;100.00;101635.38;5013624;28;20695;-74
2021/08/24 00:43:10;;;;;;;1.00;0.80;;;;;;;12.31;100.00;101629.06;5013443;28;20208;-73
2021/08/24 00:45:38;;;;;;;0.73;0.60;;;;;;;12.31;100.00;101626.34;5013665;28;20181;-74
2021/08/24 00:48:05;;;;;;;0.70;0.60;;;;;;;12.33;100.00;101619.44;5013403;28;20176;-73
2021/08/24 00:50:38;;;;;;;1.73;0.60;;;;;;;12.31;100.00;101623.59;5013429;28;20629;-74
2021/08/24 00:53:16;;;;;;;0.93;0.60;;;;;;;12.38;100.00;101629.50;5013598;28;20176;-74
2021/08/24 00:55:43;;;;;;;0.80;0.80;;;;;;;12.42;100.00;101641.50;5013128;28;20639;-74
2021/08/24 00:58:12;;;;;;;0.70;0.70;;;;;;;12.36;100.00;101629.81;5013535;28;20650;-73
2021/08/24 01:00:39;;;;;;;1.13;0.90;;;;;;;12.40;100.00;101630.84;5013512;28;20755;-74
2021/08/24 01:03:11;;;;;;;2.40;0.80;;;;;;;12.28;100.00;101635.94;5013314;28;20667;-74
2021/08/24 01:05:38;;;;;;;1.07;0.80;;;;;;;12.31;100.00;101635.38;5013637;28;20271;-73
2021/08/24 01:08:23;;;;;;;3.57;0.77;;;;;;;12.34;100.00;101636.69;5013261;28;20189;-74
2021/08/24 01:11:07;;;;;;;0.90;0.70;;;;;;;12.05;100.00;101631.31;5012868;28;20203;-74
2021/08/24 01:13:39;;;;;;;0.70;0.60;;;;;;;12.28;100.00;101643.34;5013039;28;20203;-74
2021/08/24 01:16:17;;;;;;;0.80;0.80;;;;;;;12.36;100.00;101649.00;5013166;28;20513;-73
2021/08/24 01:19:19;;;;;;;0.70;0.70;;;;;;;12.45;100.00;101649.16;5012713;28;20652;-73
2021/08/24 01:22:03;;;;;;;0.50;0.50;;;;;;;12.35;100.00;101641.88;5011363;28;20199;-73
2021/08/24 01:24:51;;;;;;;0.70;0.70;;;;;;;12.34;100.00;101640.25;5012905;28;20172;-73
2021/08/24 01:27:27;;;;;;;1.07;0.93;;;;;;;12.32;100.00;101637.00;5012383;28;20207;-73
2021/08/24 01:30:01;;;;;;;0.87;0.87;;;;;;;12.21;100.00;101633.56;5012676;28;20172;-73
2021/08/24 01:32:35;;;;;;;0.67;0.67;;;;;;;12.19;100.00;101629.50;5011607;28;20192;-73
2021/08/24 01:35:21;;;;;;;0.70;0.63;;;;;;;12.20;100.00;101622.91;5008585;28;20275;-74
2021/08/24 01:38:02;;;;;;;0.70;0.60;;;;;;;12.18;100.00;101634.16;5011804;28;20204;-74
2021/08/24 01:40:48;;;;;;;3.30;0.70;;;;;;;12.10;100.00;101629.31;5013022;28;20219;-74
2021/08/24 01:43:20;;;;;;;0.60;0.60;;;;;;;12.07;100.00;101624.41;5012249;28;20196;-74
2021/08/24 01:45:52;;;;;;;1.03;0.73;;;;;;;12.04;100.00;101630.50;5012780;28;20181;-74
2021/08/24 01:48:21;;;;;;;1.23;0.80;;;;;;;11.97;100.00;101631.94;5012714;28;20222;-74
2021/08/24 01:50:52;;;;;;;0.97;0.80;;;;;;;11.80;100.00;101627.75;5013003;28;20255;-73
2021/08/24 01:53:36;;;;;;;1.27;1.00;;;;;;;11.65;100.00;101641.56;5012668;28;20283;-74
2021/08/24 01:56:09;;;;;;;1.37;0.60;;;;;;;11.55;100.00;101642.47;5012653;28;20177;-74
2021/08/24 01:58:43;;;;;;;0.90;0.67;;;;;;;11.41;100.00;101646.16;5012464;28;20185;-73
2021/08/24 02:01:13;;;;;;;1.13;0.67;;;;;;;11.24;100.00;101644.66;5012595;28;20173;-74
2021/08/24 02:03:44;;;;;;;0.80;0.80;;;;;;;11.06;100.00;101636.34;5012369;28;20641;-72
2021/08/24 02:06:38;;;;;;;0.80;0.67;;;;;;;10.93;100.00;101643.25;5012834;28;20169;-73
2021/08/24 02:09:13;;;;;;;2.70;0.83;;;;;;;10.72;100.00;101635.22;5012253;28;20681;-73
2021/08/24 02:11:39;;;;;;;1.00;0.90;;;;;;;10.62;100.00;101646.19;5012660;28;20172;-74
2021/08/24 02:14:09;;;;;;;1.00;0.90;;;;;;;10.53;100.00;101639.66;5012153;28;20185;-74
2021/08/24 02:16:36;;;;;;;1.03;0.93;;;;;;;10.43;100.00;101664.34;5012231;28;20659;-73
2021/08/24 02:19:11;;;;;;;4.30;2.43;;;;;;;10.32;100.00;101641.69;5012058;28;20220;-73
2021/08/24 02:21:44;;;;;;;5.07;4.53;;;;;;;10.26;100.00;101645.53;5012181;28;20169;-73
2021/08/24 02:24:14;;;;;;;2.80;2.30;;;;;;;10.20;100.00;101643.91;5012261;28;20258;-74
2021/08/24 02:26:41;;;;;;;2.17;1.70;;;;;;;10.14;100.00;101651.31;5012001;28;20526;-73
2021/08/24 02:29:07;;;;;;;3.43;3.13;;;;;;;10.06;100.00;101649.13;5011962;28;20219;-74
2021/08/24 02:31:48;;;;;;;8.77;7.87;;;;;;;10.01;100.00;101651.06;5011859;28;20231;-74
2021/08/24 02:34:30;;;;;;;6.80;6.10;;;;;;;9.90;100.00;101658.47;5011376;28;20204;-74
2021/08/24 02:37:10;;;;;;;4.63;4.33;;;;;;;9.82;100.00;101653.56;5011493;28;20250;-74
2021/08/24 02:40:04;;;;;;;2.60;2.40;;;;;;;9.81;100.00;101646.47;5011825;28;20191;-72
2021/08/24 02:42:38;;;;;;;4.50;1.70;;;;;;;9.76;100.00;101651.94;5011589;28;20205;-74
2021/08/24 02:45:09;;;;;;;1.17;0.90;;;;;;;9.78;100.00;101660.69;5011032;28;20179;-73
2021/08/24 02:47:35;;;;;;;1.50;1.40;;;;;;;9.77;100.00;101667.22;5011251;28;20176;-73
2021/08/24 02:50:03;;;;;;;2.23;2.03;;;;;;;9.75;100.00;101685.78;5011109;28;20226;-73
2021/08/24 02:52:28;;;;;;;2.90;2.50;;;;;;;9.70;100.00;101680.34;5010969;28;20176;-74
2021/08/24 02:54:54;;;;;;;1.80;1.70;;;;;;;9.67;100.00;101672.69;5011116;28;20202;-73
2021/08/24 02:57:19;;;;;;;4.40;1.37;;;;;;;9.68;100.00;101688.78;5011007;28;20392;-74
2021/08/24 02:59:45;;;;;;;2.43;1.80;;;;;;;9.65;100.00;101692.06;5010990;28;20226;-74
2021/08/24 03:02:12;;;;;;;2.00;1.90;;;;;;;9.61;100.00;101703.81;5010949;28;20566;-74
2021/08/24 03:04:38;;;;;;;1.63;1.53;;;;;;;9.53;100.00;101711.44;5010607;28;20177;-73
2021/08/24 03:07:23;;;;;;;1.13;0.83;;;;;;;9.58;100.00;101705.19;5010832;28;20275;-74
2021/08/24 03:09:49;;;;;;;1.17;0.90;;;;;;;9.62;100.00;101711.72;5010797;28;20231;-74
2021/08/24 03:12:37;;;;;;;1.47;1.37;;;;;;;9.67;100.00;101699.97;5010725;28;20193;-74
2021/08/24 03:15:08;;;;;;;2.10;1.90;;;;;;;9.65;100.00;101716.63;5010489;28;20189;-74
2021/08/24 03:17:40;;;;;;;3.10;2.07;;;;;;;9.61;100.00;101698.38;5010423;28;20203;-74
2021/08/24 03:20:09;;;;;;;1.50;1.40;;;;;;;9.52;100.00;101701.63;5010744;28;20263;-73
2021/08/24 03:22:37;;;;;;;2.80;2.60;;;;;;;9.41;100.00;101708.19;5010738;28;20255;-74
2021/08/24 03:25:06;;;;;;;4.20;4.00;;;;;;;9.41;100.00;101712.84;5010501;28;20628;-73
2021/08/24 03:27:34;;;;;;;4.07;3.77;;;;;;;9.34;100.00;101707.63;5010597;28;20184;-75
2021/08/24 03:30:05;;;;;;;4.20;3.90;;;;;;;9.31;100.00;101719.09;5010548;28;20588;-75
2021/08/24 03:32:30;;;;;;;2.77;2.57;;;;;;;9.31;100.00;101721.81;5010606;28;20656;-73
2021/08/24 03:34:55;;;;;;;2.90;2.70;;;;;;;9.25;100.00;101710.06;5010328;28;20184;-75
2021/08/24 03:37:21;;;;;;;2.23;2.03;;;;;;;9.27;100.00;101706.28;5010555;28;20199;-73
2021/08/24 03:39:47;;;;;;;2.10;2.00;;;;;;;9.24;100.00;101724.78;5010409;28;20576;-73
2021/08/24 03:42:12;;;;;;;1.30;1.20;;;;;;;9.31;100.00;101716.38;5009224;28;20295;-75
2021/08/24 03:44:37;;;;;;;0.97;0.90;;;;;;;9.28;100.00;101736.00;5008872;28;20250;-73
2021/08/24 03:47:03;;;;;;;1.70;1.40;;;;;;;9.30;100.00;101730.28;5009169;28;20847;-74
2021/08/24 03:49:28;;;;;;;4.33;1.20;;;;;;;9.32;100.00;101739.81;5009161;28;20231;-74
2021/08/24 03:51:53;;;;;;;1.57;1.47;;;;;;;9.28;100.00;101741.47;5010159;28;20184;-73
2021/08/24 03:54:19;;;;;;;1.73;0.83;;;;;;;9.25;100.00;101745.50;5008719;28;20247;-74
2021/08/24 03:56:45;;;;;;;0.90;0.80;;;;;;;9.31;100.00;101746.38;5010879;28;20583;-73
2021/08/24 03:59:11;;;;;;;1.60;1.10;;;;;;;9.29;100.00;101751.28;5010233;28;20168;-74
2021/08/24 04:01:36;;;;;;;2.43;2.23;;;;;;;9.25;100.00;101764.59;5010337;28;20288;-73
2021/08/24 04:04:01;;;;;;;1.60;1.50;;;;;;;9.14;100.00;101749.34;5009886;28;20239;-74
2021/08/24 04:06:26;;;;;;;3.40;1.17;;;;;;;9.14;100.00;101754.78;5013901;28;20188;-74
2021/08/24 04:08:52;;;;;;;1.20;1.03;;;;;;;9.17;100.00;101751.53;5014065;28;20172;-74
2021/08/24 04:11:18;;;;;;;1.43;1.33;;;;;;;9.17;100.00;101767.88;5014317;28;20212;-74
2021/08/24 04:13:43;;;;;;;1.47;1.00;;;;;;;9.16;100.00;101782.59;5013705;28;20180;-74
2021/08/24 04:16:11;;;;;;;5.23;2.60;;;;;;;9.16;100.00;101754.53;5014055;28;20180;-74
2021/08/24 04:18:36;;;;;;;2.60;2.43;;;;;;;9.17;100.00;101753.44;5013558;28;20208;-74
2021/08/24 04:21:06;;;;;;;3.30;3.10;;;;;;;9.21;100.00;101774.41;5013784;28;20168;-74
2021/08/24 04:23:31;;;;;;;4.73;4.43;;;;;;;9.20;100.00;101780.97;5013802;28;20299;-74
2021/08/24 04:25:57;;;;;;;5.83;4.83;;;;;;;9.23;100.00;101787.78;5013866;28;20609;-74
2021/08/24 04:28:22;;;;;;;3.33;3.13;;;;;;;9.14;100.00;101781.25;5013752;28;20169;-75
2021/08/24 04:30:48;;;;;;;1.93;1.83;;;;;;;9.11;100.00;101792.66;5012305;28;20705;-73
2021/08/24 04:33:13;;;;;;;2.07;1.90;;;;;;;9.13;100.00;101771.41;5013556;28;20183;-75
2021/08/24 04:35:39;;;;;;;1.30;1.20;;;;;;;9.15;100.00;101793.78;5013395;28;20256;-74
2021/08/24 04:38:04;;;;;;;1.40;1.30;;;;;;;9.13;100.00;101785.06;5013618;28;20531;-75
2021/08/24 04:40:31;;;;;;;0.87;0.87;;;;;;;9.13;100.00;101798.69;5013770;28;20259;-74
2021/08/24 04:42:57;;;;;;;1.07;1.00;;;;;;;9.18;100.00;101809.59;5013431;28;20254;-74
2021/08/24 04:45:22;;;;;;;1.00;0.90;;;;;;;9.19;100.00;101797.59;5013203;28;20541;-75
2021/08/24 04:47:47;;;;;;;1.80;1.57;;;;;;;9.12;100.00;101803.31;5013613;28;20173;-74
2021/08/24 04:50:13;;;;;;;2.60;1.20;;;;;;;9.19;100.00;101803.06;5013193;28;20586;-74
2021/08/24 04:52:38;;;;;;;1.27;1.20;;;;;;;9.23;100.00;101824.06;5013177;28;20246;-74
2021/08/24 04:55:04;;;;;;;1.57;1.47;;;;;;;9.27;100.00;101818.91;5013281;28;20578;-74
2021/08/24 04:57:29;;;;;;;1.33;1.20;;;;;;;9.32;100.00;101821.63;5013349;28;20172;-74
2021/08/24 04:59:54;;;;;;;1.90;1.17;;;;;;;9.33;100.00;101839.63;5013257;28;20428;-74
2021/08/24 05:02:20;;;;;;;1.10;1.00;;;;;;;9.43;100.00;101827.94;5013113;28;20232;-74
2021/08/24 05:04:46;;;;;;;1.40;0.93;;;;;;;9.48;100.00;101852.50;5012771;28;20255;-74
2021/08/24 05:07:11;;;;;;;1.00;0.90;;;;;;;9.46;100.00;101835.59;5013380;28;20296;-74
2021/08/24 05:09:37;;;;;;;2.37;1.60;;;;;;;9.51;100.00;101836.41;5013065;28;20209;-73
2021/08/24 05:12:03;;;;;;;2.00;1.20;;;;;;;9.64;100.00;101845.16;5012748;28;20239;-74
2021/08/24 05:14:29;;;;;;;2.57;1.57;;;;;;;9.72;100.00;101840.00;5012648;28;20648;-74
2021/08/24 05:16:56;;;;;;;1.23;1.13;;;;;;;9.75;100.00;101838.63;5011139;28;20235;-74
2021/08/24 05:19:22;;;;;;;2.17;1.03;;;;;;;9.86;100.00;101842.19;5013021;28;20176;-74
2021/08/24 05:21:47;;;;;;;1.30;1.20;;;;;;;9.97;100.00;101839.16;5012935;28;20541;-74
2021/08/24 05:24:13;;;;;;;2.27;1.20;;;;;;;10.08;100.00;101845.47;5009408;28;20202;-74
2021/08/24 05:26:38;;;;;;;1.23;1.13;;;;;;;10.17;100.00;101841.09;5013213;28;20236;-74
2021/08/24 05:29:03;;;;;;;1.20;1.10;;;;;;;10.21;100.00;101844.09;5013221;28;20219;-74
2021/08/24 05:31:29;;;;;;;1.27;1.10;;;;;;;10.23;100.00;101837.28;5010482;28;20231;-73
2021/08/24 05:33:54;;;;;;;1.50;1.40;;;;;;;10.32;100.00;101834.84;5001074;28;20181;-73
2021/08/24 05:36:20;;;;;;;3.43;1.80;;;;;;;10.43;100.00;101852.84;5009798;28;20245;-72
2021/08/24 05:38:45;;;;;;;1.83;1.47;;;;;;;10.48;100.00;101841.09;5003276;28;20584;-73
2021/08/24 05:41:10;;;;;;;1.47;1.37;;;;;;;10.53;100.00;101841.06;5008169;28;20176;-75
2021/08/24 05:43:36;;;;;;;1.50;1.30;;;;;;;10.65;100.00;101845.13;5012806;28;20208;-76
2021/08/24 05:46:05;;;;;;;2.67;1.43;;;;;;;10.73;100.00;101858.25;5012895;28;20541;-74
2021/08/24 05:48:31;;;;;;;1.50;1.23;;;;;;;10.90;100.00;101849.72;5012932;28;20177;-73
2021/08/24 05:50:57;;;;;;;1.40;1.23;;;;;;;10.98;100.00;101861.97;5012798;28;20180;-72
2021/08/24 05:53:22;;;;;;;4.33;1.50;;;;;;;11.07;100.00;101854.84;5013091;28;20187;-74
2021/08/24 05:55:48;;;;;;;1.77;1.60;;;;;;;11.13;100.00;101841.94;5012736;28;20662;-73
2021/08/24 05:58:14;;;;;;;3.00;1.50;;;;;;;11.28;100.00;101845.47;5008415;28;20231;-75
2021/08/24 06:00:39;;;;;;;1.77;1.20;;;;;;;11.41;100.00;101844.00;5002395;28;20235;-74
2021/08/24 06:03:06;;;;;;;1.37;1.27;;;;;;;11.38;100.00;101843.75;5000668;28;20205;-74
2021/08/24 06:05:31;;;;;;;1.40;1.30;;;;;;;11.51;100.00;101851.34;4992962;28;20393;-75
2021/08/24 06:07:56;;;;;;;1.73;1.63;;;;;;;11.56;100.00;101849.38;4993313;28;20495;-75
2021/08/24 06:10:22;;;;;;;1.20;1.10;;;;;;;11.61;100.00;101843.88;4993162;28;20177;-75
2021/08/24 06:12:47;;;;;;;3.70;1.40;;;;;;;11.69;100.00;101847.94;4992831;28;20204;-76
2021/08/24 06:15:14;;;;;;;2.33;1.40;;;;;;;11.83;100.00;101848.94;4992662;28;20178;-74
2021/08/24 06:17:41;;;;;;;2.77;1.60;;;;;;;11.95;100.00;101848.59;4992489;28;20182;-75
2021/08/24 06:20:07;;;;;;;1.87;1.50;;;;;;;11.85;100.00;101851.41;4992649;28;20664;-75
2021/08/24 06:22:33;;;;;;;1.77;1.33;;;;;;;12.00;100.00;101845.81;4992632;28;20295;-76
2021/08/24 06:24:58;;;;;;;1.33;1.23;;;;;;;11.98;100.00;101849.94;4992652;28;20260;-76
2021/08/24 06:27:25;;;;;;;1.70;1.60;;;;;;;12.08;100.00;101858.09;4992421;28;20181;-75
2021/08/24 06:29:50;;;;;;;1.87;1.77;;;;;;;12.17;100.00;101856.38;4992494;28;20196;-75
2021/08/24 06:32:33;;;;;;;1.77;1.23;;;;;;;12.09;100.00;101854.25;4991150;28;20219;-75
2021/08/24 06:34:59;;;;;;;2.20;1.77;;;;;;;12.26;100.00;101853.81;5004550;28;20865;-76
2021/08/24 06:37:25;;;;;;;1.47;1.10;;;;;;;12.31;100.00;101860.09;5011896;28;20255;-75
2021/08/24 06:39:50;;;;;;;1.53;1.10;;;;;;;12.46;100.00;101859.13;5011925;28;20176;-75
2021/08/24 06:42:16;;;;;;;1.10;1.00;;;;;;;12.51;100.00;101862.63;5011714;28;20254;-74
2021/08/24 06:44:42;;;;;;;2.03;1.50;;;;;;;12.59;100.00;101863.94;5008241;28;20215;-75
2021/08/24 06:47:07;;;;;;;1.57;1.47;;;;;;;12.65;100.00;101860.00;5003376;28;20220;-75
2021/08/24 06:49:32;;;;;;;1.80;1.67;;;;;;;12.67;100.00;101867.94;5001708;28;20176;-74
2021/08/24 06:51:59;;;;;;;2.50;1.40;;;;;;;12.73;100.00;101861.28;4994971;28;20580;-76
2021/08/24 06:54:24;;;;;;;1.33;1.13;;;;;;;12.82;100.00;101862.28;4991977;28;20180;-76
2021/08/24 06:56:50;;;;;;;1.27;1.17;;;;;;;12.93;100.00;101869.31;4992002;28;20177;-75
2021/08/24 06:59:16;;;;;;;1.90;1.70;;;;;;;12.95;100.00;101872.56;4991994;28;20178;-75
2021/08/24 07:01:41;;;;;;;1.60;1.30;;;;;;;13.01;100.00;101865.06;4991963;28;20169;-75
2021/08/24 07:04:07;;;;;;;1.40;1.13;;;;;;;13.11;100.00;101870.44;4990694;28;20215;-75
2021/08/24 07:06:32;;;;;;;4.90;1.60;;;;;;;13.26;100.00;101878.53;4992400;28;20188;-75
2021/08/24 07:08:57;;;;;;;1.37;1.23;;;;;;;13.23;100.00;101875.56;4992320;28;20180;-76
2021/08/24 07:11:26;;;;;;;1.70;1.50;;;;;;;13.36;100.00;101877.59;5011445;28;20263;-75
2021/08/24 07:13:54;;;;;;;1.67;1.23;;;;;;;13.53;100.00;101888.88;5011323;28;20188;-75
2021/08/24 07:16:19;;;;;;;1.80;1.30;;;;;;;13.55;100.00;101883.09;5011565;28;20578;-75
2021/08/24 07:18:45;;;;;;;2.07;1.13;;;;;;;13.61;100.00;101882.72;5011146;28;20184;-75
2021/08/24 07:21:15;;;;;;;1.50;1.20;;;;;;;13.58;100.00;101886.03;5011172;28;20630;-74
2021/08/24 07:23:40;;;;;;;2.40;1.70;;;;;;;13.54;100.00;101882.28;5010903;28;20234;-81
2021/08/24 07:26:06;;;;;;;1.67;1.40;;;;;;;13.61;100.00;101882.72;5000077;28;20263;-77
2021/08/24 07:28:31;;;;;;;6.07;1.83;;;;;;;13.69;100.00;101884.78;5002010;28;20180;-80
2021/08/24 07:30:56;;;;;;;2.00;1.47;;;;;;;13.78;100.00;101889.63;5000514;28;20177;-80
2021/08/24 07:33:22;;;;;;;2.10;1.30;;;;;;;13.91;100.00;101886.13;5008213;28;20191;-75
2021/08/24 07:35:48;;;;;;;2.10;2.00;;;;;;;13.95;100.00;101882.50;5007654;28;20187;-74
2021/08/24 07:38:15;;;;;;;1.70;1.20;;;;;;;13.84;100.00;101888.44;5001288;28;20272;-75
2021/08/24 07:40:40;;;;;;;2.30;1.70;;;;;;;13.89;100.00;101888.38;5002711;28;20214;-76
2021/08/24 07:43:06;;;;;;;6.93;1.70;;;;;;;14.02;100.00;101890.34;5002148;28;20209;-76
2021/08/24 07:45:31;;;;;;;2.30;1.60;;;;;;;14.11;100.00;101883.06;5000337;28;20625;-76
2021/08/24 07:47:56;;;;;;;2.63;1.40;;;;;;;14.23;100.00;101890.84;5001263;28;20184;-76
2021/08/24 07:50:22;;;;;;;1.53;1.30;;;;;;;14.40;100.00;101888.34;5001438;28;20209;-76
2021/08/24 07:52:50;;;;;;;1.83;1.30;;;;;;;14.56;100.00;101888.91;5010771;28;20189;-76
2021/08/24 07:55:15;;;;;;;1.63;1.40;;;;;;;14.65;100.00;101892.59;5008159;28;20180;-75
2021/08/24 07:57:41;;;;;;;1.73;1.50;;;;;;;14.75;100.00;101886.09;5008562;28;20184;-74
2021/08/24 08:00:06;;;;;;;1.60;1.17;;;;;;;14.87;100.00;101883.66;5005921;28;20193;-76
2021/08/24 08:02:32;;;;;;;1.67;1.50;;;;;;;14.88;100.00;101901.78;5008061;28;20706;-75
2021/08/24 08:04:57;;;;;;;2.23;1.30;;;;;;;14.74;100.00;101889.94;5008955;28;20526;-74
2021/08/24 08:07:23;;;;;;;1.30;1.17;;;;;;;14.78;100.00;101886.31;5006270;28;20220;-76
2021/08/24 08:09:48;;;;;;;2.90;1.20;;;;;;;14.76;100.00;101891.31;5008942;28;20263;-74
2021/08/24 08:12:17;;;;;;;1.33;1.07;;;;;;;15.07;100.00;101886.03;5008922;28;20185;-75
2021/08/24 08:14:42;;;;;;;3.27;1.00;;;;;;;15.17;100.00;101882.22;5004450;28;20191;-75
2021/08/24 08:17:10;;;;;;;3.77;1.40;;;;;;;15.36;100.00;101887.63;5005289;28;20185;-76
2021/08/24 08:19:36;;;;;;;1.47;0.97;;;;;;;15.28;100.00;101889.16;5009153;28;20177;-75
2021/08/24 08:22:01;;;;;;;1.57;1.17;;;;;;;15.41;100.00;101898.53;5009374;28;20647;-76
2021/08/24 08:24:27;;;;;;;2.00;1.00;;;;;;;15.50;100.00;101885.66;5009868;28;20176;-75
2021/08/24 08:26:52;;;;;;;1.27;1.10;;;;;;;15.51;100.00;101898.31;5010211;28;20183;-74
2021/08/24 08:29:18;;;;;;;1.30;0.80;;;;;;;15.50;100.00;101893.13;5010297;28;20172;-75
2021/08/24 08:31:47;;;;;;;1.17;0.93;;;;;;;15.43;100.00;101888.00;5010283;28;20637;-75
2021/08/24 08:34:13;;;;;;;2.00;1.10;;;;;;;15.63;100.00;101895.88;5009652;28;20187;-75
2021/08/24 08:36:38;;;;;;;0.80;0.80;;;;;;;15.75;100.00;101892.56;5010033;28;20185;-74
2021/08/24 08:39:03;;;;;;;1.03;0.90;;;;;;;15.57;100.00;101897.06;5010326;28;20204;-73
2021/08/24 08:41:41;;;;;;;1.07;1.00;;;;;;;15.58;99.52;101895.13;5010440;28;20176;-73
2021/08/24 08:44:32;;;;;;;1.17;0.50;;;;;;;15.37;94.53;101890.06;5010036;28;20208;-73
2021/08/24 08:47:25;;;;;;;0.80;0.63;;;;;;;15.23;95.62;101900.28;5010107;28;20208;-73
2021/08/24 08:49:56;;;;;;;1.17;0.63;;;;;;;15.44;94.83;101904.22;5009909;28;20176;-73
2021/08/24 08:52:34;;;;;;;1.23;0.77;;;;;;;15.47;92.40;101911.06;5012080;28;20247;-73
2021/08/24 08:55:13;;;;;;;1.63;0.70;;;;;;;15.47;92.89;101908.28;5012277;28;20220;-73
2021/08/24 08:57:57;;;;;;;0.87;0.60;;;;;;;15.65;90.49;101917.59;5013109;28;20199;-73
2021/08/24 09:00:33;;;;;;;0.97;0.83;;;;;;;15.63;89.75;101912.41;5013447;28;20649;-73
2021/08/24 09:03:14;;;;;;;3.23;0.90;;;;;;;15.65;92.74;101915.66;5011760;28;20212;-74
2021/08/24 09:05:40;;;;;;;1.03;0.63;;;;;;;15.86;91.71;101913.25;5004598;28;20181;-73
2021/08/24 09:08:06;;;;;;;1.13;0.80;;;;;;;16.03;89.21;101907.06;5013413;28;20389;-72
2021/08/24 09:10:45;;;;;;;1.83;0.80;;;;;;;16.15;89.02;101904.56;5012805;28;20650;-73
2021/08/24 09:13:31;;;;;;;0.90;0.50;;;;;;;16.52;88.09;101914.41;5012744;28;20540;-73
2021/08/24 09:16:08;;;;;;;1.67;0.57;;;;;;;16.75;83.90;101914.38;5012575;28;20180;-73
2021/08/24 09:18:44;;;;;;;0.80;0.57;;;;;;;16.78;83.09;101960.66;5005848;28;20613;-73
2021/08/24 09:21:22;;;;;;;0.93;0.60;;;;;;;16.80;81.80;101915.06;5011615;28;20184;-73
2021/08/24 09:23:47;;;;;;;0.93;0.67;;;;;;;16.69;79.50;101905.44;5007213;28;20203;-73
2021/08/24 09:26:22;;;;;;;0.60;0.50;;;;;;;16.95;78.79;101911.06;5012682;28;20173;-73
2021/08/24 09:28:51;;;;;;;0.40;0.40;;;;;;;16.93;79.13;101905.88;5005488;28;20234;-73
2021/08/24 09:31:20;;;;;;;0.70;0.53;;;;;;;17.24;79.85;101910.53;5012689;28;20251;-73
2021/08/24 09:33:46;;;;;;;0.60;0.60;;;;;;;17.51;80.39;101921.34;5011480;28;20644;-73
2021/08/24 09:36:11;;;;;;;2.43;0.60;;;;;;;17.48;76.19;101905.38;5012373;28;20188;-73
2021/08/24 09:38:52;;;;;;;1.00;0.60;;;;;;;17.19;75.64;101902.38;5012916;28;20191;-73
2021/08/24 09:41:28;;;;;;;1.27;0.80;;;;;;;16.98;77.96;101901.34;5012178;28;20580;-73
2021/08/24 09:43:56;;;;;;;1.27;0.63;;;;;;;16.91;80.77;101891.56;5008513;28;20310;-73
2021/08/24 09:46:26;;;;;;;1.07;0.80;;;;;;;17.12;78.97;101891.81;5006773;28;20191;-73
2021/08/24 09:48:58;;;;;;;0.60;0.50;;;;;;;17.52;76.23;101894.50;5001964;28;20554;-73
2021/08/24 09:51:41;;;;;;;1.97;0.60;;;;;;;17.41;75.27;101887.66;5012751;28;20741;-73
2021/08/24 09:54:15;;;;;;;0.43;0.37;;;;;;;17.12;70.07;101886.28;5011725;28;20187;-74
2021/08/24 09:56:49;;;;;;;0.90;0.67;;;;;;;17.05;71.74;101888.69;5012618;28;20172;-74
2021/08/24 09:59:23;;;;;;;0.87;0.60;;;;;;;16.84;77.37;101890.41;5007209;28;20255;-75
2021/08/24 10:01:50;;;;;;;0.87;0.53;;;;;;;16.94;77.78;101879.09;5010140;28;20212;-73
2021/08/24 10:04:16;;;;;;;1.27;0.53;;;;;;;16.83;76.54;101884.06;5008943;28;20204;-75
2021/08/24 10:07:29;;;;;;;1.47;0.80;;;;;;;16.68;76.41;101878.16;5011462;28;20174;-74
2021/08/24 10:09:58;;;;;;;1.07;0.60;;;;;;;16.91;78.29;101882.44;4969079;28;20200;-75
2021/08/24 10:12:33;;;;;;;1.50;0.50;;;;;;;17.10;76.93;101877.50;5006302;28;20189;-73
2021/08/24 10:14:58;;;;;;;0.97;0.63;;;;;;;17.24;72.39;101882.91;5011841;28;20173;-74
2021/08/24 10:17:25;;;;;;;0.87;0.57;;;;;;;17.40;70.12;101874.97;5012017;28;20624;-74
2021/08/24 10:19:51;;;;;;;0.70;0.70;;;;;;;17.73;71.42;101881.69;5011837;28;20176;-75
2021/08/24 10:22:25;;;;;;;1.50;0.93;;;;;;;17.49;69.15;101875.78;5011507;28;20268;-75
2021/08/24 10:25:00;;;;;;;0.40;0.37;;;;;;;17.48;70.42;101876.91;5006916;28;20189;-76
2021/08/24 10:27:33;;;;;;;1.17;0.47;;;;;;;17.60;68.13;101870.75;5012707;28;20564;-75
2021/08/24 10:30:06;;;;;;;0.33;0.30;;;;;;;17.75;66.72;101871.13;5012345;28;20215;-75
2021/08/24 10:32:37;;;;;;;1.37;0.57;;;;;;;17.99;69.15;101869.84;5011247;28;20169;-75
2021/08/24 10:35:18;;;;;;;1.17;0.60;;;;;;;18.24;68.63;101859.88;5011051;28;20172;-74
2021/08/24 10:37:47;;;;;;;0.70;0.70;;;;;;;18.23;67.31;101859.06;5011490;28;20577;-75
2021/08/24 10:40:12;;;;;;;0.90;0.67;;;;;;;18.38;66.30;101861.31;5011620;28;20172;-75
2021/08/24 10:42:41;;;;;;;0.70;0.50;;;;;;;18.35;66.64;101848.09;5010762;28;20207;-75
2021/08/24 10:45:15;;;;;;;1.20;0.40;;;;;;;18.51;66.88;101848.38;5011132;28;20228;-75
2021/08/24 10:47:50;;;;;;;0.57;0.40;;;;;;;18.50;65.07;101851.47;5011291;28;20176;-75
2021/08/24 10:50:21;;;;;;;0.53;0.53;;;;;;;18.38;62.34;101858.53;5011241;28;20187;-75
2021/08/24 10:52:56;;;;;;;1.43;0.50;;;;;;;18.38;62.85;101843.91;5011213;28;20184;-74
2021/08/24 10:55:37;;;;;;;0.60;0.50;;;;;;;18.52;63.80;101844.50;5010661;28;20208;-74
2021/08/24 10:58:25;;;;;;;0.53;0.50;;;;;;;18.30;62.24;101848.28;5011208;28;20172;-74
2021/08/24 11:01:03;;;;;;;0.70;0.63;;;;;;;18.11;63.97;101845.91;5007667;28;20193;-74
2021/08/24 11:03:57;;;;;;;0.80;0.70;;;;;;;18.03;64.79;101838.41;5011425;28;20791;-74
2021/08/24 11:06:35;;;;;;;1.27;0.50;;;;;;;18.08;65.38;101845.72;5011484;28;20263;-74
2021/08/24 11:09:17;;;;;;;0.70;0.50;;;;;;;17.90;65.33;101842.16;5011549;28;20197;-75
2021/08/24 11:12:09;;;;;;;0.70;0.70;;;;;;;18.02;66.35;101845.09;5011395;28;20176;-74
2021/08/24 11:14:47;;;;;;;0.50;0.47;;;;;;;17.93;65.34;101837.94;5010455;28;20533;-74
2021/08/24 11:17:24;;;;;;;0.57;0.50;;;;;;;17.98;65.18;101840.56;5011193;28;20188;-74
2021/08/24 11:20:06;;;;;;;1.70;0.50;;;;;;;18.36;66.55;101841.44;5011330;28;20180;-74
2021/08/24 11:22:40;;;;;;;0.83;0.53;;;;;;;18.69;64.50;101841.69;5009893;28;20204;-74
2021/08/24 11:25:34;;;;;;;1.10;0.53;;;;;;;18.70;63.34;101846.09;5011152;28;20173;-74
2021/08/24 11:28:08;;;;;;;1.00;0.60;;;;;;;18.82;63.41;101847.34;5011288;28;20168;-75
2021/08/24 11:30:44;;;;;;;0.77;0.50;;;;;;;18.51;64.20;101830.97;5011239;28;20188;-74
2021/08/24 11:33:24;;;;;;;2.03;0.60;;;;;;;18.65;63.76;101832.41;5011175;28;20226;-74
2021/08/24 11:35:58;;;;;;;1.10;0.50;;;;;;;18.88;65.56;101834.91;5007330;28;20264;-73